Time;durP1;ratioP1;P1;durP2;ratioP2;P2;SDS_P1;SDS_P2;PMS_P1;PMS_P2;Temp;Humidity;BMP_temperature;BMP_pressure;BME280_temperature;BME280_humidity;BME280_pressure;Samples;Min_cycle;Max_cycle;Signal;HPM_P1;HPM_P2
2022/07/24 00:22:19;;;;;;;8.60;7.70;;;;;;;;;;5068598;28;20489;-94
2022/07/24 00:24:55;;;;;;;9.27;8.67;;;;;;;;;;5051482;28;20429;-92
2022/07/24 00:27:28;;;;;;;9.30;8.80;;;;;;;;;;5036385;28;20431;-93
2022/07/24 00:29:57;;;;;;;9.30;8.60;;;;;;;;;;5072432;28;20425;-94
2022/07/24 00:32:23;;;;;;;8.97;8.47;;;;;;;;;;5055936;28;20426;-93
2022/07/24 00:34:57;;;;;;;7.83;7.53;;;;;;;;;;5070339;28;20429;-92
2022/07/24 00:37:27;;;;;;;8.67;8.03;;;;;;;;;;5069714;28;20450;-93
2022/07/24 00:40:05;;;;;;;8.40;7.90;;;;;;;;;;5058283;28;20465;-93
2022/07/24 00:42:42;;;;;;;8.50;7.83;;;;;;;;;;5039813;28;20446;-93
2022/07/24 00:47:59;;;;;;;8.47;7.87;;;;;;;;;;5078279;28;20401;-93
2022/07/24 00:50:42;;;;;;;9.10;8.40;;;;;;;;;;5178592;23;21148;-91
2022/07/24 00:53:23;;;;;;;8.67;8.17;;;;;;;;;;5059683;28;20430;-93
2022/07/24 00:58:52;;;;;;;8.20;7.70;;;;;;;;;;5175271;22;20492;-93
2022/07/24 01:01:21;;;;;;;7.80;7.40;;;;;;;;;;5040184;28;20403;-93
2022/07/24 01:03:50;;;;;;;8.67;7.83;;;;;;;;;;5019611;28;20439;-92
2022/07/24 01:06:16;;;;;;;7.60;7.27;;;;;;;;;;5055116;28;20449;-92
2022/07/24 01:08:51;;;;;;;14.40;10.27;;;;;;;;;;5038531;28;20458;-94
2022/07/24 01:11:17;;;;;;;9.13;8.53;;;;;;;;;;5053166;28;20417;-93
2022/07/24 01:13:49;;;;;;;9.23;8.73;;;;;;;;;;5036626;28;20445;-93
2022/07/24 01:16:23;;;;;;;8.83;8.30;;;;;;;;;;5035792;28;20427;-94
2022/07/24 01:18:51;;;;;;;8.70;8.20;;;;;;;;;;5034876;28;20466;-93
2022/07/24 01:21:20;;;;;;;12.30;11.40;;;;;;;;;;5053051;28;20442;-93
2022/07/24 01:24:01;;;;;;;10.37;9.67;;;;;;;;;;5035926;28;20430;-94
2022/07/24 01:26:33;;;;;;;10.47;9.80;;;;;;;;;;5033460;28;20430;-95
2022/07/24 01:29:17;;;;;;;12.23;11.00;;;;;;;;;;5030156;28;20432;-94
2022/07/24 01:31:45;;;;;;;11.93;11.13;;;;;;;;;;5014663;28;20439;-94
2022/07/24 01:34:14;;;;;;;11.90;11.00;;;;;;;;;;5052627;28;20501;-94
2022/07/24 01:36:47;;;;;;;10.73;9.87;;;;;;;;;;5033344;28;20431;-94
2022/07/24 01:39:21;;;;;;;9.93;9.33;;;;;;;;;;5033089;28;20469;-93
2022/07/24 01:41:56;;;;;;;9.20;8.47;;;;;;;;;;5031486;28;20424;-94
2022/07/24 01:44:22;;;;;;;8.70;8.20;;;;;;;;;;5014801;28;20451;-93
2022/07/24 01:47:01;;;;;;;9.33;8.73;;;;;;;;;;5050603;28;20477;-93
2022/07/24 01:49:28;;;;;;;9.13;8.53;;;;;;;;;;5014051;28;20423;-94
2022/07/24 01:51:59;;;;;;;8.40;8.00;;;;;;;;;;5049070;28;20435;-93
2022/07/24 01:54:32;;;;;;;9.53;8.73;;;;;;;;;;5013942;28;20420;-94
2022/07/24 01:57:01;;;;;;;8.67;8.27;;;;;;;;;;5030422;28;20408;-93
2022/07/24 01:59:40;;;;;;;9.03;8.23;;;;;;;;;;5042394;28;20469;-93
2022/07/24 02:02:09;;;;;;;9.40;8.60;;;;;;;;;;5037623;28;20437;-92
2022/07/24 02:04:36;;;;;;;9.63;8.87;;;;;;;;;;5038910;28;20452;-93
2022/07/24 02:07:04;;;;;;;8.40;7.77;;;;;;;;;;5035679;28;20419;-93
2022/07/24 02:09:30;;;;;;;10.07;9.43;;;;;;;;;;5038159;28;20434;-93
2022/07/24 02:14:41;;;;;;;8.00;7.60;;;;;;;;;;5103791;22;20485;-94
2022/07/24 02:17:30;;;;;;;7.70;7.30;;;;;;;;;;5040931;28;20502;-93
2022/07/24 02:19:59;;;;;;;8.50;7.80;;;;;;;;;;5042605;28;20545;-91
2022/07/24 02:22:35;;;;;;;;;;;;;;;;;;;;;
2022/07/24 02:25:02;;;;;;;8.70;8.20;;;;;;;;;;5054732;28;20433;-91
2022/07/24 02:27:30;;;;;;;7.77;7.30;;;;;;;;;;5062279;28;20445;-94
2022/07/24 02:29:58;;;;;;;8.47;7.87;;;;;;;;;;5062876;28;20429;-93
2022/07/24 02:32:27;;;;;;;8.40;7.90;;;;;;;;;;5080079;28;20444;-94
2022/07/24 02:34:57;;;;;;;7.33;6.93;;;;;;;;;;5075006;28;20433;-93
2022/07/24 02:37:26;;;;;;;7.50;7.00;;;;;;;;;;5076901;28;20437;-92
2022/07/24 02:40:00;;;;;;;7.37;6.87;;;;;;;;;;5039429;28;20518;-93
2022/07/24 02:42:34;;;;;;;8.10;7.80;;;;;;;;;;5055622;28;20418;-94
2022/07/24 02:45:05;;;;;;;8.87;8.37;;;;;;;;;;5038451;28;20939;-93
2022/07/24 02:50:48;;;;;;;7.53;7.13;;;;;;;;;;5055452;28;20438;-92
2022/07/24 02:53:18;;;;;;;7.53;7.23;;;;;;;;;;5063641;28;20429;-93
2022/07/24 02:55:44;;;;;;;8.93;8.30;;;;;;;;;;5072609;28;20468;-93
2022/07/24 02:58:13;;;;;;;7.37;7.03;;;;;;;;;;5081282;28;20425;-93
2022/07/24 03:00:52;;;;;;;12.17;7.37;;;;;;;;;;5058294;28;20434;-94
2022/07/24 03:03:24;;;;;;;7.83;7.40;;;;;;;;;;5042406;28;20465;-92
2022/07/24 03:05:53;;;;;;;9.27;8.57;;;;;;;;;;5066505;28;20423;-94
2022/07/24 03:08:22;;;;;;;9.60;8.97;;;;;;;;;;5073553;28;20444;-93
2022/07/24 03:10:53;;;;;;;9.77;9.17;;;;;;;;;;5054045;28;20439;-95
2022/07/24 03:13:22;;;;;;;9.17;8.37;;;;;;;;;;5066559;28;20450;-93
2022/07/24 03:16:08;;;;;;;8.23;7.53;;;;;;;;;;5053800;28;20442;-94
2022/07/24 03:18:37;;;;;;;8.80;8.20;;;;;;;;;;5071299;28;20949;-93
2022/07/24 03:21:05;;;;;;;8.63;8.23;;;;;;;;;;5070394;28;20433;-93
2022/07/24 03:23:38;;;;;;;8.50;8.00;;;;;;;;;;5084798;28;20422;-95
2022/07/24 03:26:06;;;;;;;9.50;8.70;;;;;;;;;;5072036;28;20410;-93
2022/07/24 03:28:42;;;;;;;8.40;8.10;;;;;;;;;;5076109;28;20463;-95
2022/07/24 03:31:14;;;;;;;9.13;8.40;;;;;;;;;;5078302;28;20416;-95
2022/07/24 03:33:59;;;;;;;9.30;8.50;;;;;;;;;;5074816;28;20394;-94
2022/07/24 03:36:42;;;;;;;9.20;8.40;;;;;;;;;;5054283;28;20426;-94
2022/07/24 03:39:12;;;;;;;8.30;7.90;;;;;;;;;;5054974;28;20465;-92
2022/07/24 03:41:43;;;;;;;8.47;7.97;;;;;;;;;;5075874;28;20422;-94
2022/07/24 03:44:32;;;;;;;9.43;8.93;;;;;;;;;;5056535;28;20403;-93
2022/07/24 03:47:04;;;;;;;9.20;8.70;;;;;;;;;;5057833;28;20429;-94
2022/07/24 03:49:31;;;;;;;9.63;8.83;;;;;;;;;;5056186;28;20571;-93
2022/07/24 03:52:07;;;;;;;;;;;;;;;;;;;;;
2022/07/24 03:54:36;;;;;;;8.90;8.30;;;;;;;;;;5061486;28;20433;-93
2022/07/24 03:57:06;;;;;;;9.20;8.40;;;;;;;;;;5055227;28;20426;-92
2022/07/24 03:59:53;;;;;;;9.40;8.80;;;;;;;;;;5075344;28;20650;-94
2022/07/24 04:02:19;;;;;;;8.73;8.20;;;;;;;;;;5067529;28;20453;-94
2022/07/24 04:04:48;;;;;;;9.10;8.60;;;;;;;;;;5076066;28;20461;-94
2022/07/24 04:07:17;;;;;;;9.80;9.00;;;;;;;;;;5089533;28;20433;-94
2022/07/24 04:09:43;;;;;;;8.43;8.03;;;;;;;;;;5089992;28;20421;-93
2022/07/24 04:12:24;;;;;;;8.70;8.23;;;;;;;;;;5088230;28;20418;-94
2022/07/24 04:14:54;;;;;;;7.70;7.40;;;;;;;;;;5076326;28;20468;-93
2022/07/24 04:17:23;;;;;;;8.87;8.37;;;;;;;;;;5085947;28;20434;-95
2022/07/24 04:20:28;;;;;;;8.30;7.90;;;;;;;;;;5055002;28;20489;-92
2022/07/24 04:23:00;;;;;;;8.93;8.43;;;;;;;;;;4978201;28;20448;-94
2022/07/24 04:25:58;;;;;;;9.13;8.43;;;;;;;;;;5040824;28;20483;-93
2022/07/24 04:28:52;;;;;;;8.33;7.83;;;;;;;;;;5059628;28;20443;-93
2022/07/24 04:31:45;;;;;;;;;;;;;;;;;;;;;
2022/07/24 04:34:18;;;;;;;8.77;8.37;;;;;;;;;;5052309;28;20439;-94
2022/07/24 04:37:05;;;;;;;8.10;7.50;;;;;;;;;;5054356;28;20827;-92
2022/07/24 04:42:48;;;;;;;8.53;8.17;;;;;;;;;;5054354;28;20470;-94
2022/07/24 04:45:17;;;;;;;8.60;8.10;;;;;;;;;;5045686;28;20428;-89
2022/07/24 04:47:46;;;;;;;9.70;8.80;;;;;;;;;;5036829;28;20583;-90
2022/07/24 04:50:12;;;;;;;7.93;7.63;;;;;;;;;;5038310;28;20529;-91
2022/07/24 04:52:38;;;;;;;7.87;7.43;;;;;;;;;;5038070;28;20680;-90
2022/07/24 04:55:04;;;;;;;8.33;7.93;;;;;;;;;;5039424;28;20450;-90
2022/07/24 04:57:30;;;;;;;8.03;7.63;;;;;;;;;;5031640;28;20448;-90
2022/07/24 04:59:58;;;;;;;7.50;6.90;;;;;;;;;;5049588;28;20565;-90
2022/07/24 05:02:24;;;;;;;7.03;6.73;;;;;;;;;;5044359;28;20413;-89
2022/07/24 05:04:51;;;;;;;7.17;6.83;;;;;;;;;;5047966;28;20520;-89
2022/07/24 05:07:17;;;;;;;7.20;6.90;;;;;;;;;;5041269;28;20425;-89
2022/07/24 05:09:43;;;;;;;7.40;7.00;;;;;;;;;;5050078;28;20437;-90
2022/07/24 05:12:09;;;;;;;7.87;7.47;;;;;;;;;;5063949;28;20436;-90
2022/07/24 05:14:35;;;;;;;7.03;6.73;;;;;;;;;;5050920;28;20428;-89
2022/07/24 05:17:01;;;;;;;7.20;6.90;;;;;;;;;;5062650;28;20438;-90
2022/07/24 05:19:27;;;;;;;7.53;7.33;;;;;;;;;;5043842;28;20879;-90
2022/07/24 05:21:53;;;;;;;6.93;6.50;;;;;;;;;;5047879;28;20528;-89
2022/07/24 05:24:19;;;;;;;6.70;6.30;;;;;;;;;;5048200;28;20445;-90
2022/07/24 05:26:45;;;;;;;7.63;7.33;;;;;;;;;;5044066;28;20924;-91
2022/07/24 05:29:11;;;;;;;6.97;6.60;;;;;;;;;;5069359;28;20796;-90
2022/07/24 05:31:37;;;;;;;6.60;6.30;;;;;;;;;;5065383;28;20448;-90
2022/07/24 05:34:03;;;;;;;5.73;5.53;;;;;;;;;;5034909;28;20445;-90
2022/07/24 05:36:29;;;;;;;7.07;6.53;;;;;;;;;;5051660;28;20518;-90
2022/07/24 05:38:56;;;;;;;6.10;5.90;;;;;;;;;;5049023;28;20453;-89
2022/07/24 05:41:22;;;;;;;6.37;6.07;;;;;;;;;;5040939;28;20449;-90
2022/07/24 05:43:48;;;;;;;6.07;5.73;;;;;;;;;;5053615;28;20515;-90
2022/07/24 05:46:14;;;;;;;5.80;5.60;;;;;;;;;;5050891;28;20422;-90
2022/07/24 05:48:40;;;;;;;6.20;6.00;;;;;;;;;;5055990;28;20950;-90
2022/07/24 05:51:07;;;;;;;6.20;6.00;;;;;;;;;;4701685;28;9999813;-90
2022/07/24 05:53:33;;;;;;;5.90;5.70;;;;;;;;;;5052123;28;20183;-90
2022/07/24 05:55:59;;;;;;;6.30;6.10;;;;;;;;;;5064011;28;20798;-89
2022/07/24 05:58:25;;;;;;;6.60;6.37;;;;;;;;;;5052660;28;20923;-89
2022/07/24 06:00:51;;;;;;;6.20;6.00;;;;;;;;;;5050280;28;20468;-89
2022/07/24 06:03:17;;;;;;;6.50;6.03;;;;;;;;;;5057295;28;20449;-89
2022/07/24 06:05:43;;;;;;;5.70;5.60;;;;;;;;;;5051744;28;20488;-90
2022/07/24 06:08:09;;;;;;;5.90;5.50;;;;;;;;;;5052568;28;20440;-88
2022/07/24 06:10:37;;;;;;;5.70;5.50;;;;;;;;;;5053375;28;20959;-90
2022/07/24 06:13:03;;;;;;;6.80;6.40;;;;;;;;;;5054388;28;20437;-90
2022/07/24 06:15:29;;;;;;;6.40;6.23;;;;;;;;;;5051820;28;20571;-90
2022/07/24 06:17:56;;;;;;;6.50;6.27;;;;;;;;;;5052547;28;20437;-90
2022/07/24 06:20:21;;;;;;;6.20;5.90;;;;;;;;;;5054781;28;20461;-91
2022/07/24 06:22:47;;;;;;;6.17;5.77;;;;;;;;;;5062101;28;21083;-90
2022/07/24 06:25:14;;;;;;;6.40;5.90;;;;;;;;;;5050055;28;20441;-90
2022/07/24 06:27:43;;;;;;;5.60;5.50;;;;;;;;;;5053811;28;20424;-90
2022/07/24 06:30:19;;;;;;;6.23;6.03;;;;;;;;;;5065585;28;20469;-91
2022/07/24 06:32:45;;;;;;;6.33;6.00;;;;;;;;;;5053527;28;20620;-90
2022/07/24 06:35:12;;;;;;;6.37;6.10;;;;;;;;;;5048433;28;20517;-90
2022/07/24 06:37:38;;;;;;;5.30;5.20;;;;;;;;;;5044101;28;20430;-89
2022/07/24 06:40:05;;;;;;;6.00;5.80;;;;;;;;;;5050564;28;20475;-89
2022/07/24 06:42:33;;;;;;;5.67;5.47;;;;;;;;;;5044108;28;20436;-90
2022/07/24 06:44:59;;;;;;;5.67;5.57;;;;;;;;;;5053390;28;20440;-90
2022/07/24 06:47:26;;;;;;;6.43;6.20;;;;;;;;;;5062298;28;20410;-89
2022/07/24 06:49:52;;;;;;;5.90;5.60;;;;;;;;;;5048139;28;20451;-90
2022/07/24 06:52:19;;;;;;;5.73;5.63;;;;;;;;;;5045654;28;20422;-90
2022/07/24 06:54:48;;;;;;;5.30;5.20;;;;;;;;;;5053265;28;20768;-89
2022/07/24 06:57:18;;;;;;;6.30;6.00;;;;;;;;;;5062130;28;20439;-90
2022/07/24 06:59:44;;;;;;;5.67;5.47;;;;;;;;;;5051304;28;20473;-89
2022/07/24 07:02:10;;;;;;;5.90;5.67;;;;;;;;;;5051176;28;20479;-89
2022/07/24 07:04:36;;;;;;;5.60;5.40;;;;;;;;;;5055267;28;20987;-91
2022/07/24 07:07:03;;;;;;;5.60;5.40;;;;;;;;;;5059609;28;20424;-90
2022/07/24 07:09:29;;;;;;;5.80;5.60;;;;;;;;;;5056287;28;20406;-90
2022/07/24 07:11:55;;;;;;;5.60;5.30;;;;;;;;;;5060106;28;20413;-89
2022/07/24 07:14:24;;;;;;;5.70;5.50;;;;;;;;;;5051381;28;20441;-90
2022/07/24 07:16:53;;;;;;;5.80;5.50;;;;;;;;;;5052962;28;20455;-90
2022/07/24 07:19:19;;;;;;;6.23;5.97;;;;;;;;;;5059087;28;20472;-91
2022/07/24 07:21:53;;;;;;;5.97;5.67;;;;;;;;;;5051093;28;20531;-90
2022/07/24 07:24:19;;;;;;;5.83;5.50;;;;;;;;;;5046272;28;20606;-90
2022/07/24 07:26:47;;;;;;;6.00;5.83;;;;;;;;;;5048987;28;20437;-89
2022/07/24 07:29:16;;;;;;;6.20;5.70;;;;;;;;;;5052605;28;20422;-89
2022/07/24 07:31:42;;;;;;;5.93;5.63;;;;;;;;;;5045535;28;20462;-89
2022/07/24 07:34:08;;;;;;;5.30;5.20;;;;;;;;;;5015106;28;20415;-90
2022/07/24 07:36:36;;;;;;;6.10;5.90;;;;;;;;;;5018477;28;20660;-90
2022/07/24 07:39:03;;;;;;;6.13;5.97;;;;;;;;;;5032108;28;20459;-90
2022/07/24 07:41:29;;;;;;;6.13;6.00;;;;;;;;;;5035505;28;20443;-90
2022/07/24 07:44:02;;;;;;;6.30;6.07;;;;;;;;;;5028367;28;20431;-90
2022/07/24 07:46:28;;;;;;;5.93;5.73;;;;;;;;;;4666835;28;9999931;-90
2022/07/24 07:48:54;;;;;;;5.90;5.73;;;;;;;;;;5030082;28;20229;-90
2022/07/24 07:51:20;;;;;;;6.10;5.80;;;;;;;;;;5011305;28;20478;-90
2022/07/24 07:53:50;;;;;;;6.53;6.27;;;;;;;;;;5016848;28;20438;-90
2022/07/24 07:56:16;;;;;;;5.57;5.37;;;;;;;;;;5028078;28;20556;-90
2022/07/24 07:58:42;;;;;;;5.77;5.57;;;;;;;;;;5029349;28;20442;-90
2022/07/24 08:01:15;;;;;;;6.07;5.87;;;;;;;;;;5029450;28;20527;-89
2022/07/24 08:03:43;;;;;;;6.70;6.40;;;;;;;;;;5023701;28;20529;-89
2022/07/24 08:06:09;;;;;;;6.20;6.10;;;;;;;;;;5025708;28;20477;-90
2022/07/24 08:08:35;;;;;;;6.73;6.43;;;;;;;;;;5026271;28;20952;-90
2022/07/24 08:11:04;;;;;;;7.17;6.87;;;;;;;;;;5011096;28;20435;-90
2022/07/24 08:13:30;;;;;;;6.60;6.30;;;;;;;;;;5029434;28;20441;-90
2022/07/24 08:15:59;;;;;;;6.53;6.20;;;;;;;;;;5019241;28;20438;-89
2022/07/24 08:18:25;;;;;;;6.80;6.40;;;;;;;;;;5024616;28;20459;-88
2022/07/24 08:20:51;;;;;;;6.60;6.40;;;;;;;;;;5024086;28;20549;-89
2022/07/24 08:23:17;;;;;;;6.40;6.20;;;;;;;;;;5014487;28;20508;-90
2022/07/24 08:25:43;;;;;;;6.40;6.07;;;;;;;;;;5011423;28;20446;-91
2022/07/24 08:28:09;;;;;;;6.17;5.83;;;;;;;;;;5035504;28;20426;-91
2022/07/24 08:30:36;;;;;;;7.00;6.70;;;;;;;;;;5018618;28;20442;-91
2022/07/24 08:33:11;;;;;;;7.60;7.10;;;;;;;;;;5019846;28;20819;-90
2022/07/24 08:35:39;;;;;;;7.53;7.03;;;;;;;;;;5012036;28;20445;-91
2022/07/24 08:38:08;;;;;;;7.03;6.83;;;;;;;;;;5029079;28;20440;-89
2022/07/24 08:40:36;;;;;;;7.03;6.80;;;;;;;;;;5022754;28;20524;-89
2022/07/24 08:43:06;;;;;;;7.10;6.90;;;;;;;;;;5012353;28;20523;-85
2022/07/24 08:45:48;;;;;;;7.40;7.10;;;;;;;;;;5004230;28;20451;-91
2022/07/24 08:48:36;;;;;;;;;;;;;;;;;;;;;
2022/07/24 08:51:03;;;;;;;6.73;6.40;;;;;;;;;;5026807;28;20478;-91
2022/07/24 08:53:39;;;;;;;;;;;;;;;;;;;;;
2022/07/24 08:56:25;;;;;;;7.07;6.80;;;;;;;;;;5027374;28;20750;-90
2022/07/24 08:58:51;;;;;;;7.63;7.33;;;;;;;;;;5010724;28;20539;-91
2022/07/24 09:01:24;;;;;;;6.90;6.53;;;;;;;;;;5009148;28;20446;-90
2022/07/24 09:03:50;;;;;;;6.87;6.57;;;;;;;;;;5010671;28;20466;-90
2022/07/24 09:06:17;;;;;;;7.93;7.63;;;;;;;;;;5032551;23;20600;-91
2022/07/24 09:08:58;;;;;;;7.70;7.50;;;;;;;;;;5023048;28;20526;-90
2022/07/24 09:11:24;;;;;;;7.37;7.07;;;;;;;;;;5032283;28;20438;-90
2022/07/24 09:16:38;;;;;;;6.70;6.40;;;;;;;;;;5040537;28;21006;-91
2022/07/24 09:19:05;;;;;;;7.67;7.40;;;;;;;;;;5043478;28;20454;-90
2022/07/24 09:21:35;;;;;;;7.23;6.93;;;;;;;;;;5033487;28;20438;-88
2022/07/24 09:24:11;;;;;;;7.70;7.37;;;;;;;;;;5028073;28;20653;-91
2022/07/24 09:27:22;;;;;;;7.20;6.90;;;;;;;;;;5019279;28;20407;-91
2022/07/24 09:29:51;;;;;;;7.27;6.57;;;;;;;;;;4969539;28;20996;-91
2022/07/24 09:32:24;;;;;;;6.23;6.13;;;;;;;;;;5012948;28;20448;-91
2022/07/24 09:34:56;;;;;;;6.70;6.50;;;;;;;;;;5034819;28;20417;-91
2022/07/24 09:37:23;;;;;;;6.43;6.23;;;;;;;;;;5023079;28;20505;-90
2022/07/24 09:39:52;;;;;;;6.97;6.67;;;;;;;;;;5034198;28;20496;-92
2022/07/24 09:45:07;;;;;;;7.53;7.00;;;;;;;;;;4681805;28;10001290;-91
2022/07/24 09:47:34;;;;;;;6.70;6.43;;;;;;;;;;5032264;28;20406;-90
2022/07/24 09:50:12;;;;;;;6.80;6.60;;;;;;;;;;5031655;28;21021;-92
2022/07/24 09:52:42;;;;;;;7.33;7.13;;;;;;;;;;5017111;28;20790;-91
2022/07/24 09:55:19;;;;;;;8.23;7.93;;;;;;;;;;5027214;28;20406;-92
2022/07/24 09:57:45;;;;;;;7.13;6.70;;;;;;;;;;5034403;28;20261;-91
2022/07/24 10:00:12;;;;;;;7.00;6.80;;;;;;;;;;5048040;28;20462;-92
2022/07/24 10:02:38;;;;;;;6.63;6.43;;;;;;;;;;5048399;28;20444;-90
2022/07/24 10:05:06;;;;;;;6.30;6.00;;;;;;;;;;5039940;23;20512;-93
2022/07/24 10:07:34;;;;;;;7.67;7.33;;;;;;;;;;5030713;28;20901;-92
2022/07/24 10:10:01;;;;;;;6.10;5.87;;;;;;;;;;5068998;28;20438;-91
2022/07/24 10:12:31;;;;;;;7.07;6.90;;;;;;;;;;5053353;28;20417;-91
2022/07/24 10:14:58;;;;;;;7.47;7.10;;;;;;;;;;5081927;28;20473;-89
2022/07/24 10:17:46;;;;;;;7.00;6.80;;;;;;;;;;5043024;28;20523;-91
2022/07/24 10:20:20;;;;;;;6.90;6.70;;;;;;;;;;5037066;28;20848;-92
2022/07/24 10:23:06;;;;;;;6.10;6.00;;;;;;;;;;5051689;28;20463;-91
2022/07/24 10:25:42;;;;;;;5.73;5.63;;;;;;;;;;5045765;28;20434;-88
2022/07/24 10:28:15;;;;;;;6.93;6.73;;;;;;;;;;5043586;28;20425;-91
2022/07/24 10:30:47;;;;;;;6.20;6.00;;;;;;;;;;5052435;28;20438;-93
2022/07/24 10:33:13;;;;;;;7.37;7.00;;;;;;;;;;5063781;28;20410;-93
2022/07/24 10:38:22;;;;;;;7.53;7.23;;;;;;;;;;5626915;22;20504;-91
2022/07/24 10:40:50;;;;;;;8.00;7.60;;;;;;;;;;5035438;28;20465;-90
2022/07/24 10:43:20;;;;;;;7.77;7.47;;;;;;;;;;5036807;28;20825;-92
2022/07/24 10:45:51;;;;;;;7.40;7.10;;;;;;;;;;5063087;28;20504;-92
2022/07/24 10:48:28;;;;;;;6.93;6.80;;;;;;;;;;5067446;28;20398;-93
2022/07/24 10:51:06;;;;;;;7.10;6.67;;;;;;;;;;5055063;28;20445;-93
2022/07/24 10:53:39;;;;;;;8.03;7.53;;;;;;;;;;5051078;28;20991;-89
2022/07/24 10:56:24;;;;;;;6.70;6.17;;;;;;;;;;5065994;28;20445;-91
2022/07/24 10:59:11;;;;;;;7.30;7.00;;;;;;;;;;5053362;28;20437;-90
2022/07/24 11:01:44;;;;;;;7.93;7.27;;;;;;;;;;5047707;28;20538;-88
2022/07/24 11:04:19;;;;;;;6.20;6.10;;;;;;;;;;5038707;28;20459;-91
2022/07/24 11:06:46;;;;;;;6.10;5.83;;;;;;;;;;5048857;28;20440;-89
2022/07/24 11:09:12;;;;;;;6.93;6.73;;;;;;;;;;5060100;28;20434;-91
2022/07/24 11:12:03;;;;;;;6.87;6.57;;;;;;;;;;5066841;28;20492;-91
2022/07/24 11:14:38;;;;;;;6.73;6.53;;;;;;;;;;5052940;28;20499;-91
2022/07/24 11:17:23;;;;;;;7.83;7.40;;;;;;;;;;5056551;28;20432;-91
2022/07/24 11:19:56;;;;;;;6.30;6.00;;;;;;;;;;5061903;28;20501;-91
2022/07/24 11:22:37;;;;;;;7.10;6.90;;;;;;;;;;5077732;28;20435;-91
2022/07/24 11:25:10;;;;;;;7.97;7.40;;;;;;;;;;5058969;28;20840;-89
2022/07/24 11:27:45;;;;;;;6.10;5.90;;;;;;;;;;5092218;28;20879;-89
2022/07/24 11:30:14;;;;;;;7.13;6.93;;;;;;;;;;5054243;28;20443;-91
2022/07/24 11:32:41;;;;;;;6.47;6.27;;;;;;;;;;5050679;28;20465;-89
2022/07/24 11:35:08;;;;;;;6.30;6.10;;;;;;;;;;5050687;28;20498;-91
2022/07/24 11:37:38;;;;;;;6.10;6.00;;;;;;;;;;5033846;28;20518;-89
2022/07/24 11:40:06;;;;;;;6.67;6.47;;;;;;;;;;5030538;28;20461;-88
2022/07/24 11:42:33;;;;;;;5.93;5.73;;;;;;;;;;5052864;28;20513;-89
2022/07/24 11:45:00;;;;;;;6.50;6.40;;;;;;;;;;5070128;28;20483;-89
2022/07/24 11:47:27;;;;;;;7.10;6.70;;;;;;;;;;5053998;28;20444;-89
2022/07/24 11:49:55;;;;;;;7.50;7.10;;;;;;;;;;5083582;28;20500;-90
2022/07/24 11:52:25;;;;;;;7.40;7.10;;;;;;;;;;5080197;28;20932;-93
2022/07/24 11:54:53;;;;;;;6.63;6.43;;;;;;;;;;5082232;28;20417;-92
2022/07/24 11:57:26;;;;;;;6.23;6.03;;;;;;;;;;5046085;28;20440;-93
2022/07/24 11:59:53;;;;;;;6.60;6.30;;;;;;;;;;5058443;28;20513;-92
2022/07/24 12:02:20;;;;;;;6.80;6.60;;;;;;;;;;5067527;28;20410;-91
2022/07/24 12:04:49;;;;;;;6.10;6.00;;;;;;;;;;5066241;28;20540;-87
2022/07/24 12:07:25;;;;;;;5.80;5.60;;;;;;;;;;5056089;28;20430;-89
2022/07/24 12:10:04;;;;;;;6.33;6.03;;;;;;;;;;5062492;28;20437;-90
2022/07/24 12:12:31;;;;;;;5.40;5.30;;;;;;;;;;5056991;28;20498;-92
2022/07/24 12:15:07;;;;;;;5.50;5.40;;;;;;;;;;5050200;28;20857;-90
2022/07/24 12:17:35;;;;;;;6.93;6.50;;;;;;;;;;5063993;28;20445;-90
2022/07/24 12:20:02;;;;;;;6.80;6.40;;;;;;;;;;5062753;28;20560;-89
2022/07/24 12:22:29;;;;;;;6.30;6.10;;;;;;;;;;5048566;28;20470;-88
2022/07/24 12:24:56;;;;;;;6.30;6.10;;;;;;;;;;5045907;28;20508;-90
2022/07/24 12:27:52;;;;;;;5.97;5.77;;;;;;;;;;5063125;28;20448;-90
2022/07/24 12:30:35;;;;;;;6.60;6.30;;;;;;;;;;5065317;28;20431;-90
2022/07/24 12:33:05;;;;;;;6.20;6.10;;;;;;;;;;5048072;28;20417;-90
2022/07/24 12:35:33;;;;;;;5.83;5.63;;;;;;;;;;5066344;28;20433;-89
2022/07/24 12:38:09;;;;;;;5.73;5.53;;;;;;;;;;5062880;28;20529;-91
2022/07/24 12:40:45;;;;;;;6.50;6.10;;;;;;;;;;5044541;28;20476;-93
2022/07/24 12:43:21;;;;;;;7.60;7.20;;;;;;;;;;5056728;28;20430;-92
2022/07/24 12:46:04;;;;;;;5.90;5.80;;;;;;;;;;5080936;28;20429;-90
2022/07/24 12:48:31;;;;;;;7.40;7.10;;;;;;;;;;5056242;28;20409;-87
2022/07/24 12:51:00;;;;;;;6.20;5.80;;;;;;;;;;5045082;28;20522;-86
2022/07/24 12:53:30;;;;;;;7.67;7.20;;;;;;;;;;5029969;28;20506;-87
2022/07/24 12:56:16;;;;;;;6.57;6.17;;;;;;;;;;5076527;28;20413;-88
2022/07/24 12:59:07;;;;;;;5.80;5.70;;;;;;;;;;5070619;28;20425;-90
2022/07/24 13:01:52;;;;;;;6.03;5.83;;;;;;;;;;5059484;28;20414;-89
2022/07/24 13:04:20;;;;;;;6.10;5.80;;;;;;;;;;5084559;28;20464;-90
2022/07/24 13:06:47;;;;;;;6.00;5.73;;;;;;;;;;5053066;28;20430;-90
2022/07/24 13:09:42;;;;;;;5.27;5.07;;;;;;;;;;5092923;28;20436;-92
2022/07/24 13:12:37;;;;;;;4.67;4.67;;;;;;;;;;5073458;28;20457;-90
2022/07/24 13:15:23;;;;;;;5.33;5.13;;;;;;;;;;5055206;28;20499;-90
2022/07/24 13:21:37;;;;;;;5.77;5.67;;;;;;;;;;5018532;28;20437;-92
2022/07/24 13:24:07;;;;;;;6.00;5.90;;;;;;;;;;5063425;28;20484;-92
2022/07/24 13:26:42;;;;;;;6.13;6.03;;;;;;;;;;5060231;28;20438;-91
2022/07/24 13:29:17;;;;;;;6.10;5.57;;;;;;;;;;5064074;28;20441;-91
2022/07/24 13:31:45;;;;;;;5.47;5.27;;;;;;;;;;5050916;28;20422;-93
2022/07/24 13:34:14;;;;;;;4.70;4.60;;;;;;;;;;5079262;28;20428;-91
2022/07/24 13:36:42;;;;;;;4.97;4.87;;;;;;;;;;5064012;28;20406;-91
2022/07/24 13:39:09;;;;;;;4.00;4.00;;;;;;;;;;5062836;28;20527;-91
2022/07/24 13:41:53;;;;;;;5.50;5.00;;;;;;;;;;5057436;28;20479;-91
2022/07/24 13:44:25;;;;;;;5.13;5.13;;;;;;;;;;5043641;28;20433;-91
2022/07/24 13:46:59;;;;;;;5.33;5.13;;;;;;;;;;5065284;28;20441;-90
2022/07/24 13:52:53;;;;;;;5.70;5.50;;;;;;;;;;4649194;28;10000482;-91
2022/07/24 13:55:48;;;;;;;6.17;5.63;;;;;;;;;;5017335;28;20224;-90
2022/07/24 13:58:35;;;;;;;7.73;7.50;;;;;;;;;;4983337;28;20493;-89
2022/07/24 14:03:51;;;;;;;5.50;5.33;;;;;;;;;;5002712;28;20444;-90
2022/07/24 14:06:26;;;;;;;5.50;5.40;;;;;;;;;;4995717;28;20452;-92
2022/07/24 14:08:55;;;;;;;5.40;5.30;;;;;;;;;;4982305;28;20527;-91
2022/07/24 14:11:21;;;;;;;5.70;5.50;;;;;;;;;;4993100;28;20851;-91
2022/07/24 14:13:47;;;;;;;6.47;6.13;;;;;;;;;;4997707;28;20516;-92
2022/07/24 14:16:13;;;;;;;5.97;5.87;;;;;;;;;;4998712;28;20439;-92
2022/07/24 14:18:49;;;;;;;5.73;5.63;;;;;;;;;;4993622;28;20408;-91
2022/07/24 14:21:28;;;;;;;5.83;5.73;;;;;;;;;;5000125;28;20483;-92
2022/07/24 14:23:54;;;;;;;6.40;5.90;;;;;;;;;;4980028;28;20946;-91
2022/07/24 14:26:20;;;;;;;6.57;6.20;;;;;;;;;;4985026;28;20440;-90
2022/07/24 14:28:46;;;;;;;6.63;6.43;;;;;;;;;;4980670;28;20494;-92
2022/07/24 14:31:15;;;;;;;6.30;6.20;;;;;;;;;;4997107;28;20451;-93
2022/07/24 14:33:51;;;;;;;6.07;5.90;;;;;;;;;;4992586;28;20475;-91
2022/07/24 14:36:33;;;;;;;5.80;5.60;;;;;;;;;;4980261;28;21009;-91
2022/07/24 14:39:27;;;;;;;5.63;5.43;;;;;;;;;;4977335;28;20416;-92
2022/07/24 14:42:07;;;;;;;6.87;6.60;;;;;;;;;;4985548;28;20483;-91
2022/07/24 14:44:35;;;;;;;6.63;6.27;;;;;;;;;;4983741;28;20540;-90
2022/07/24 14:47:04;;;;;;;6.07;5.97;;;;;;;;;;4993355;28;20452;-91
2022/07/24 14:49:51;;;;;;;6.43;6.13;;;;;;;;;;4986258;28;20495;-94
2022/07/24 14:52:21;;;;;;;6.45;6.15;;;;;;;;;;5000106;28;20530;-92
2022/07/24 14:54:48;;;;;;;6.23;5.83;;;;;;;;;;4987049;28;20189;-92
2022/07/24 14:57:24;;;;;;;5.70;5.30;;;;;;;;;;4996106;28;20445;-93
2022/07/24 14:59:55;;;;;;;5.80;5.60;;;;;;;;;;4993794;28;20498;-90
2022/07/24 15:02:22;;;;;;;5.90;5.80;;;;;;;;;;4971756;28;20470;-87
2022/07/24 15:04:54;;;;;;;7.40;7.10;;;;;;;;;;4970790;28;20523;-91
2022/07/24 15:07:28;;;;;;;6.83;6.60;;;;;;;;;;4997054;28;20448;-92
2022/07/24 15:09:57;;;;;;;7.20;6.97;;;;;;;;;;5001384;28;20466;-92
2022/07/24 15:12:24;;;;;;;7.33;7.03;;;;;;;;;;5007501;28;20476;-89
2022/07/24 15:14:52;;;;;;;8.17;7.77;;;;;;;;;;5004206;28;20553;-90
2022/07/24 15:17:27;;;;;;;15.23;14.03;;;;;;;;;;4997241;28;20434;-90
2022/07/24 15:19:58;;;;;;;7.53;7.13;;;;;;;;;;5006996;28;20564;-91
2022/07/24 15:22:31;;;;;;;8.33;7.83;;;;;;;;;;4995077;28;20500;-91
2022/07/24 15:25:06;;;;;;;6.83;6.63;;;;;;;;;;4999048;28;20439;-91
2022/07/24 15:27:37;;;;;;;7.77;7.53;;;;;;;;;;5008099;28;20407;-91
2022/07/24 15:30:29;;;;;;;8.10;7.50;;;;;;;;;;5003239;28;20484;-90
2022/07/24 15:36:28;;;;;;;8.00;7.60;;;;;;;;;;4981660;28;21136;-92
2022/07/24 15:38:57;;;;;;;7.30;6.83;;;;;;;;;;4997821;28;20432;-91
2022/07/24 15:41:35;;;;;;;7.20;6.80;;;;;;;;;;5001736;28;20436;-90
2022/07/24 15:44:01;;;;;;;8.13;7.82;;;;;;;;;;4983824;28;20438;-88
2022/07/24 15:46:27;;;;;;;9.90;9.17;;;;;;;;;;4995028;28;20264;-90
2022/07/24 15:48:56;;;;;;;7.83;7.60;;;;;;;;;;4994043;28;20498;-91
2022/07/24 15:51:24;;;;;;;8.00;7.60;;;;;;;;;;4988569;28;20472;-90
2022/07/24 15:53:53;;;;;;;7.93;7.40;;;;;;;;;;4986424;28;20424;-90
2022/07/24 15:56:25;;;;;;;7.43;7.23;;;;;;;;;;5049571;23;20489;-92
2022/07/24 15:58:51;;;;;;;7.37;7.17;;;;;;;;;;5033257;28;20431;-90
2022/07/24 16:01:25;;;;;;;8.00;7.60;;;;;;;;;;5049849;28;20461;-90
2022/07/24 16:03:55;;;;;;;7.63;7.30;;;;;;;;;;5038809;28;20454;-90
2022/07/24 16:08:51;;;;;;;6.93;6.73;;;;;;;;;;5066694;22;21179;-90
2022/07/24 16:11:17;;;;;;;7.33;6.83;;;;;;;;;;5021929;28;20443;-88